This is the latest recevied weather packets stored in our database for station/object KI6UAP-10. If no packets are shown the sender has not sent any weather packets the latest 10 day(s).
| Time | Temp. | Humidity | Pressure | Rain* | Wind** | Luminosity | Snow |
|---|---|---|---|---|---|---|---|
| 1777598270 | 21.11° C | 100% | 0 hPa | - | - | - | - |
| 1777597370 | 21.67° C | 100% | 0 hPa | - | - | - | - |
| 1777597348 | 21.67° C | 100% | 0 hPa | - | - | - | - |
| 1777596506 | 22.22° C | 100% | 0 hPa | - | - | - | - |
| 1777595606 | 22.22° C | 100% | 0 hPa | - | - | - | - |
| 1777594706 | 22.78° C | 100% | 0 hPa | - | - | - | - |
| 1777593805 | 23.33° C | 100% | 0 hPa | - | - | - | - |
| 1777592905 | 23.89° C | 100% | 0 hPa | - | - | - | - |
| 1777592005 | 24.44° C | 100% | 0 hPa | - | - | - | - |
| 1777591105 | 25.56° C | 100% | 0 hPa | - | - | - | - |
| 1777590205 | 26.11° C | 100% | 0 hPa | - | - | - | - |
| 1777589305 | 27.78° C | 100% | 0 hPa | - | - | - | - |
| 1777588405 | 32.22° C | 94% | 0 hPa | - | - | - | - |
| 1777587503 | 37.22° C | 87% | 0 hPa | - | - | - | - |
| 1777586603 | 30.56° C | 98% | 0 hPa | - | - | - | - |
| 1777585703 | 27.78° C | 100% | 0 hPa | - | - | - | - |
| 1777584803 | 27.78° C | 100% | 0 hPa | - | - | - | - |
| 1777583903 | 28.89° C | 100% | 0 hPa | - | - | - | - |
| 1777583003 | 30.56° C | 100% | 0 hPa | - | - | - | - |
| 1777582102 | 35° C | 94% | 0 hPa | - | - | - | - |
| 1777581202 | 45° C | 80% | 0 hPa | - | - | - | - |
| 1777580302 | 45° C | 81% | 0 hPa | - | - | - | - |
| 1777579402 | 44.44° C | 81% | 0 hPa | - | - | - | - |
| 1777578502 | 43.89° C | 83% | 0 hPa | - | - | - | - |
| 1777577602 | 42.78° C | 85% | 0 hPa | - | - | - | - |
* Rain since midnight (hover to see other rain measurements)
** Current wind speed in m/s (hover to see current wind gust speed)